KGI weather

Kalgoorlie Boulder Airport
Kalgoorlie, Western Australia, Australia

Public forecast

Using degrees Celsius for public forecast. Weather courtesy of forecast.io.

METAR (pilot weather report)

Retrieved 2019/03/22 13:30 UTC (17 minutes ago):

YPKG 221330Z AUTO 15004KT 9999 // BKN096 OVC120 22/17 Q1014

TAF (pilot weather forecast)

Retrieved 2019/03/22 12:00 UTC (2 hours ago):

TAF YPKG 221110Z 2212/2312 19012KT CAVOK FM221600 17013KT 9999 BKN012 BECMG 2300/2302 14012KT 9999 BKN020 FM230600 11012KT 9999 BKN030 TEMPO 2218/2301 3000 DZ BKN008 PROB30 TEMPO 2212/2214 VRB25G45KT 2000 TSRA BKN010 FEW080CB